Pietro Scalise

Scout - Spezia
19 Aug 2027
Donnerstag
Verarbeitung

Persönlichkeit

Anpassungsfähigkeit (3) Ehrgeiz (15) Kontroverse (3) Loyalität (17) Druck (15) Professionalität (11) Fairness (15) Temperament (8)

Profil

Trainerstil Demokratisch
Lizenz Nationale A
Entschlossenheit 10
Menschenführung 5
Motivation 4
Disziplin 6
Arbeitszufriedenheit
100%
Ermüdung
0%
Rolle Scout
Gehalt 47.0K p/W
Vertrag 14.03.2029

Leistung

Verhalten Gut
Trainingseffektivität
28%
Spielerentwicklung
45%
Verletzungsprävention
45%
Taktische Umsetzung
20%

Letzte Ereignisse

Nahm an einer Scouting-Besprechung teil jetzt
Nahm an einer Scouting-Besprechung teil 7T her
Nahm an einer Scouting-Besprechung teil 7T her
Nahm an einer Scouting-Besprechung teil 7T her
Nahm an einer Scouting-Besprechung teil 14T her
Nahm an einer Scouting-Besprechung teil 14T her
Nahm an einer Scouting-Besprechung teil 14T her
Nahm an einer Scouting-Besprechung teil 21T her

Aktuell beobachtet

55
Spieler Verein Status Fähigkeit Vertrauen Beobachtet Zuletzt beobachtet Letzte Stimme
Nicolas Viola Ravenna Aktiv 113 / 102 48% 1 18.01.2027 -
Juan Miranda Bologna Aktiv 130 / 125 40% 2 29.12.2026 -
Mirko Antonucci Cittadella Aktiv 127 / 110 40% 1 29.12.2026 -
Stiven Shpendi Empoli Aktiv 114 / 132 40% 1 28.12.2026 -
Romano Schmid Frosinone Aktiv 152 / 156 40% 4 26.12.2026 -
Andrea Colpani Monza Aktiv 144 / 121 40% 1 22.12.2026 Mehr Infos nötig
Jens Odgaard Bologna Aktiv 131 / 141 40% 1 21.12.2026 Mehr Infos nötig
Emanuele Schimmenti Potenza Aktiv 111 / 104 40% 1 19.12.2026 -
Simon Ramabu Polokwane City Aktiv 102 / 93 40% 1 17.12.2026 -
Thalente Mbatha Orlando Pirates Aktiv 115 / 123 40% 1 17.12.2026 -
Luciano Gondou CSKA Moscow Aktiv 117 / 109 40% 1 15.12.2026 -
Lorenzo Ignacchiti Empoli Aktiv 115 / 131 40% 1 11.12.2026 -
Tijjani Noslin Lazio Aktiv 121 / 134 40% 3 08.12.2026 -
Emirhan İlkhan Cremonese Aktiv 127 / 134 40% 1 08.12.2026 -
Lucas Da Cunha Como Aktiv 155 / 155 40% 3 07.12.2026 -
Siyanda Ndlovu Bloemfontein Celtic Aktiv 106 / 127 40% 1 07.12.2026 -
Eren Aydın Zira Aktiv 103 / 114 40% 1 05.12.2026 -
Tommaso Pobega Bologna Aktiv 129 / 123 40% 2 03.12.2026 -
Josh Doig Sassuolo Aktiv 120 / 138 40% 1 03.12.2026 -
Martin Baturina Como Aktiv 125 / 124 40% 3 02.12.2026 -
Giacomo Raspadori Atalanta Aktiv 152 / 131 40% 1 28.11.2026 -
Mattéo Tramoni Pisa Aktiv 134 / 127 40% 2 24.11.2026 -
Ramiro Ruiz Rodríguez Atlético Tucumán Aktiv 117 / 118 40% 1 24.11.2026 -
Tshepang Moremi Orlando Pirates Aktiv 100 / 120 40% 1 19.11.2026 -
Sayfallah Ltaief Cracovia Aktiv 134 / 122 40% 1 19.11.2026 -
Razvan Balasa Crvena Zvezda Aktiv 154 / 167 40% 1 15.11.2026 -
Mayckel Lahdo Malmo FF Aktiv 108 / 133 40% 1 14.11.2026 -
Sead Hakšabanović Malmo FF Aktiv 132 / 110 40% 1 14.11.2026 -
Pontus Almqvist Parma Aktiv 121 / 137 40% 1 06.11.2026 -
Santiago González Tigre Aktiv 134 / 120 40% 1 02.11.2026 -
Nadir Zortea Bologna Aktiv 142 / 122 40% 2 01.11.2026 -
Alessio Zerbin Frosinone Aktiv 117 / 137 40% 1 01.11.2026 -
Billy Gilmour Napoli Aktiv 144 / 130 40% 1 30.10.2026 -
Joaquín Gho Argentinos Juniors Aktiv 116 / 132 40% 2 28.10.2026 -
Lameck Banda Lecce Aktiv 118 / 143 40% 1 28.10.2026 -
Þórir Jóhann Helgason IF Elfsborg Aktiv 123 / 112 40% 1 21.10.2026 -
Bénie Traoré New York City Aktiv 136 / 140 40% 1 21.10.2026 -
Kristian Thorstvedt Sassuolo Aktiv 138 / 122 40% 1 20.10.2026 -
Carlos Vicente Birmingham Aktiv 133 / 134 40% 2 13.10.2026 -
Isaiah Jones Luton Town Aktiv 114 / 121 40% 1 13.10.2026 -
Elliot Anderson Manchester City Aktiv 148 / 157 40% 1 04.10.2026 -
Yuber Quiñónes Deportivo Pereira Aktiv 113 / 121 40% 1 04.10.2026 -
Lewis Ferguson Bologna Aktiv 156 / 153 40% 2 01.10.2026 -
Brian Gutiérrez Guadalajara Aktiv 134 / 151 40% 1 01.10.2026 -
Facundo Mura Inter Miami CF Aktiv 106 / 118 40% 1 29.09.2026 -
Carlos Augusto Inter Aktiv 138 / 143 40% 1 26.09.2026 -
Pedro Vite Pumas UNAM Aktiv 114 / 114 40% 1 25.09.2026 -
Bryan González Guadalajara Aktiv 147 / 129 40% 1 25.09.2026 -
Santiago Sala Güemes Aktiv 110 / 120 40% 1 22.09.2026 -
Iván Angulo Orlando City Aktiv 141 / 134 40% 1 19.09.2026 -
Georginio Rutter Brighton Aktiv 144 / 160 40% 1 18.09.2026 -
Xavi Simons Tottenham Aktiv 162 / 165 40% 1 16.09.2026 -
Tadeo Allende Inter Miami CF Aktiv 128 / 107 40% 1 11.09.2026 -
Santiago Toloza O'Higgins Aktiv 117 / 113 40% 1 11.09.2026 -
Ángel Correa River Plate Aktiv 151 / 138 40% 1 01.08.2026 -